Time;durP1;ratioP1;P1;durP2;ratioP2;P2;SDS_P1;SDS_P2;PMS_P1;PMS_P2;Temp;Humidity;BMP_temperature;BMP_pressure;BME280_temperature;BME280_humidity;BME280_pressure;Samples;Min_cycle;Max_cycle;Signal;HPM_P1;HPM_P2
2022/08/08 00:02:06;;;;;;;;;;;20.30;58.80;;;;;;5050754;28;20004;-57
2022/08/08 00:04:50;;;;;;;;;;;20.30;59.50;;;;;;5027951;28;19910;-57
2022/08/08 00:07:20;;;;;;;;;;;20.30;59.20;;;;;;5028597;28;19920;-55
2022/08/08 00:10:03;;;;;;;;;;;20.20;59.50;;;;;;5028483;28;20004;-58
2022/08/08 00:12:32;;;;;;;;;;;20.20;59.90;;;;;;5028373;28;19913;-58
2022/08/08 00:15:05;;;;;;;;;;;20.00;61.60;;;;;;5028800;28;19916;-59
2022/08/08 00:17:31;;;;;;;;;;;20.00;60.60;;;;;;5028098;28;20012;-57
2022/08/08 00:20:00;;;;;;;;;;;20.00;61.20;;;;;;5028176;28;20060;-59
2022/08/08 00:22:40;;;;;;;;;;;20.00;61.50;;;;;;5028491;28;19963;-59
2022/08/08 00:25:07;;;;;;;;;;;20.00;60.70;;;;;;5027907;28;20512;-58
2022/08/08 00:27:34;;;;;;;;;;;19.90;61.40;;;;;;5028361;28;19954;-59
2022/08/08 00:30:01;;;;;;;;;;;19.90;61.00;;;;;;5028318;28;20374;-59
2022/08/08 00:32:29;;;;;;;;;;;19.90;62.20;;;;;;5028303;28;19909;-58
2022/08/08 00:35:14;;;;;;;;;;;19.90;61.60;;;;;;5028338;28;19917;-58
2022/08/08 00:37:58;;;;;;;;;;;19.90;61.80;;;;;;5028177;28;19920;-58
2022/08/08 00:40:27;;;;;;;;;;;19.90;62.00;;;;;;5030537;28;19936;-58
2022/08/08 00:42:52;;;;;;;;;;;19.90;62.00;;;;;;5050336;28;19909;-58
2022/08/08 00:45:36;;;;;;;;;;;19.80;62.00;;;;;;5051151;28;19916;-59
2022/08/08 00:48:25;;;;;;;;;;;19.80;61.80;;;;;;5050544;28;19962;-58
2022/08/08 00:51:00;;;;;;;;;;;19.80;62.10;;;;;;5053900;28;19913;-59
2022/08/08 00:53:36;;;;;;;;;;;19.70;62.70;;;;;;5053973;28;20362;-58
2022/08/08 00:56:14;;;;;;;;;;;19.70;62.40;;;;;;5054006;28;20544;-58
2022/08/08 00:58:39;;;;;;;;;;;19.70;61.90;;;;;;5054536;28;19913;-58
2022/08/08 01:01:31;;;;;;;;;;;19.70;62.50;;;;;;5052997;28;19915;-59
2022/08/08 01:04:16;;;;;;;;;;;19.60;62.80;;;;;;5052505;28;19913;-58
2022/08/08 01:06:50;;;;;;;;;;;19.60;63.80;;;;;;5053971;28;19952;-57
2022/08/08 01:09:34;;;;;;;;;;;19.50;63.50;;;;;;5054220;28;19916;-58
2022/08/08 01:12:08;;;;;;;;;;;19.50;63.90;;;;;;5053729;28;19971;-54
2022/08/08 01:14:43;;;;;;;;;;;19.50;63.80;;;;;;5053785;28;19908;-58
2022/08/08 01:17:12;;;;;;;;;;;19.50;63.90;;;;;;5051788;28;19932;-54
2022/08/08 01:19:56;;;;;;;;;;;19.40;63.90;;;;;;5053664;28;19913;-58
2022/08/08 01:22:27;;;;;;;;;;;19.40;64.00;;;;;;5053322;28;20031;-58
2022/08/08 01:24:58;;;;;;;;;;;19.30;64.90;;;;;;5051947;28;19908;-57
2022/08/08 01:27:49;;;;;;;;;;;19.20;64.70;;;;;;5053350;28;19909;-58
2022/08/08 01:30:26;;;;;;;;;;;19.30;64.40;;;;;;5053064;28;19983;-58
2022/08/08 01:33:04;;;;;;;;;;;19.30;64.40;;;;;;5052738;28;20778;-57
2022/08/08 01:35:48;;;;;;;;;;;19.30;64.50;;;;;;5053224;28;19915;-59
2022/08/08 01:38:29;;;;;;;;;;;19.30;64.20;;;;;;5058814;28;20082;-58
2022/08/08 01:41:02;;;;;;;;;;;19.30;64.80;;;;;;5072243;28;20218;-57
2022/08/08 01:43:32;;;;;;;;;;;19.20;64.80;;;;;;5073133;28;19943;-58
2022/08/08 01:46:16;;;;;;;;;;;19.20;64.90;;;;;;5073002;28;19908;-58
2022/08/08 01:49:00;;;;;;;;;;;19.10;65.30;;;;;;5073014;28;19917;-57
2022/08/08 01:51:33;;;;;;;;;;;19.10;65.50;;;;;;5068323;28;19940;-59
2022/08/08 01:54:02;;;;;;;;;;;19.10;65.00;;;;;;5072611;28;20316;-59
2022/08/08 01:56:41;;;;;;;;;;;19.00;65.90;;;;;;5073030;28;20053;-59
2022/08/08 01:59:27;;;;;;;;;;;19.10;66.10;;;;;;5072258;28;19908;-58
2022/08/08 02:02:05;;;;;;;;;;;19.00;65.80;;;;;;5054402;28;19909;-58
2022/08/08 02:04:38;;;;;;;;;;;19.00;66.10;;;;;;5088237;28;20297;-57
2022/08/08 02:07:15;;;;;;;;;;;18.90;66.60;;;;;;5072362;28;20053;-59
2022/08/08 02:09:59;;;;;;;;;;;18.90;66.70;;;;;;5072573;28;19920;-59
2022/08/08 02:12:28;;;;;;;;;;;18.90;66.50;;;;;;5072778;28;19912;-57
2022/08/08 02:14:54;;;;;;;;;;;18.80;66.90;;;;;;5071720;28;19950;-56
2022/08/08 02:17:23;;;;;;;;;;;18.80;67.20;;;;;;5072066;28;19978;-58
2022/08/08 02:19:52;;;;;;;;;;;18.80;67.70;;;;;;5072649;28;19909;-58
2022/08/08 02:22:31;;;;;;;;;;;18.80;66.90;;;;;;5072066;28;20396;-58
2022/08/08 02:25:05;;;;;;;;;;;18.70;66.80;;;;;;5072506;28;19935;-59
2022/08/08 02:27:37;;;;;;;;;;;18.80;66.90;;;;;;5066832;28;20388;-58
2022/08/08 02:30:05;;;;;;;;;;;18.70;67.40;;;;;;5071884;28;19920;-58
2022/08/08 02:32:39;;;;;;;;;;;18.70;66.30;;;;;;5072495;28;19962;-59
2022/08/08 02:35:24;;;;;;;;;;;18.70;67.50;;;;;;5071937;28;19920;-58
2022/08/08 02:38:04;;;;;;;;;;;18.70;67.60;;;;;;5072115;28;19923;-57
2022/08/08 02:40:59;;;;;;;;;;;18.60;67.90;;;;;;5071732;28;20604;-58
2022/08/08 02:43:55;;;;;;;;;;;18.60;67.90;;;;;;5058350;28;20010;-59
2022/08/08 02:46:44;;;;;;;;;;;18.60;67.90;;;;;;5071839;28;19978;-59
2022/08/08 02:49:29;;;;;;;;;;;18.50;68.70;;;;;;5053889;28;19986;-59
2022/08/08 02:52:03;;;;;;;;;;;18.40;68.70;;;;;;5071783;28;19974;-59
2022/08/08 02:54:48;;;;;;;;;;;18.40;68.30;;;;;;5072190;28;20357;-57
2022/08/08 02:57:16;;;;;;;;;;;18.40;68.80;;;;;;5071666;28;19914;-59
2022/08/08 02:59:47;;;;;;;;;;;18.40;69.20;;;;;;5071436;28;20395;-58
2022/08/08 03:02:16;;;;;;;;;;;18.40;69.00;;;;;;5071863;28;19909;-58
2022/08/08 03:05:00;;;;;;;;;;;18.30;69.30;;;;;;5071511;28;19961;-58
2022/08/08 03:07:44;;;;;;;;;;;18.30;69.60;;;;;;5071889;28;19951;-59
2022/08/08 03:10:28;;;;;;;;;;;18.30;70.30;;;;;;5071344;28;19916;-58
2022/08/08 03:13:12;;;;;;;;;;;18.20;69.80;;;;;;5070845;28;20406;-58
2022/08/08 03:15:56;;;;;;;;;;;18.20;69.80;;;;;;5071747;28;20373;-58
2022/08/08 03:18:34;;;;;;;;;;;18.20;70.60;;;;;;5071261;28;19912;-58
2022/08/08 03:21:00;;;;;;;;;;;18.20;70.40;;;;;;5066187;28;19920;-58
2022/08/08 03:23:26;;;;;;;;;;;18.10;70.20;;;;;;5071591;28;19916;-58
2022/08/08 03:25:53;;;;;;;;;;;18.10;70.00;;;;;;5070938;28;19909;-58
2022/08/08 03:28:22;;;;;;;;;;;18.10;70.50;;;;;;5070834;28;19915;-58
2022/08/08 03:30:47;;;;;;;;;;;18.10;70.60;;;;;;5070803;28;19912;-58
2022/08/08 03:33:19;;;;;;;;;;;18.10;71.00;;;;;;5071171;28;19930;-57
2022/08/08 03:35:46;;;;;;;;;;;18.00;70.90;;;;;;5071581;28;19962;-56
2022/08/08 03:38:12;;;;;;;;;;;18.00;70.60;;;;;;5070556;28;19921;-54
2022/08/08 03:40:37;;;;;;;;;;;18.00;71.40;;;;;;5070685;28;20022;-58
2022/08/08 03:43:05;;;;;;;;;;;18.00;71.60;;;;;;5070674;28;19912;-57
2022/08/08 03:45:31;;;;;;;;;;;18.00;72.00;;;;;;5071185;28;19967;-57
2022/08/08 03:48:04;;;;;;;;;;;17.90;72.00;;;;;;5070900;28;19936;-58
2022/08/08 03:50:30;;;;;;;;;;;17.90;71.80;;;;;;5066377;28;19917;-58
2022/08/08 03:53:00;;;;;;;;;;;17.90;71.40;;;;;;5052588;28;20280;-57
2022/08/08 03:55:26;;;;;;;;;;;17.90;72.40;;;;;;5070313;28;19908;-57
2022/08/08 03:57:55;;;;;;;;;;;17.80;72.00;;;;;;5071078;28;20404;-57
2022/08/08 04:00:22;;;;;;;;;;;17.90;71.70;;;;;;5070920;28;19958;-57
2022/08/08 04:03:00;;;;;;;;;;;17.80;72.40;;;;;;5070885;28;19908;-56
2022/08/08 04:05:28;;;;;;;;;;;17.80;72.70;;;;;;5070564;28;19955;-58
2022/08/08 04:07:53;;;;;;;;;;;17.80;72.20;;;;;;5071041;28;19908;-57
2022/08/08 04:10:19;;;;;;;;;;;17.80;71.60;;;;;;5070189;28;20172;-57
2022/08/08 04:12:44;;;;;;;;;;;17.90;71.80;;;;;;5070877;28;19970;-58
2022/08/08 04:15:10;;;;;;;;;;;17.80;72.80;;;;;;5071006;28;19908;-58
2022/08/08 04:17:35;;;;;;;;;;;17.80;72.20;;;;;;5053190;28;19909;-54
2022/08/08 04:20:01;;;;;;;;;;;17.80;72.80;;;;;;5070543;28;20043;-56
2022/08/08 04:22:27;;;;;;;;;;;17.70;73.20;;;;;;5070722;28;19915;-58
2022/08/08 04:24:53;;;;;;;;;;;17.70;73.00;;;;;;5073710;28;19909;-56
2022/08/08 04:27:19;;;;;;;;;;;17.70;73.10;;;;;;5074577;28;20288;-57
2022/08/08 04:29:45;;;;;;;;;;;17.70;73.40;;;;;;5074183;28;20373;-58
2022/08/08 04:32:13;;;;;;;;;;;17.70;72.40;;;;;;5074608;28;19915;-57
2022/08/08 04:34:39;;;;;;;;;;;17.70;73.40;;;;;;5074093;28;20372;-57
2022/08/08 04:37:04;;;;;;;;;;;17.60;73.40;;;;;;5073885;28;19923;-57
2022/08/08 04:39:30;;;;;;;;;;;17.60;73.00;;;;;;5073233;28;19924;-58
2022/08/08 04:41:56;;;;;;;;;;;17.60;74.30;;;;;;5074231;28;20034;-57
2022/08/08 04:44:21;;;;;;;;;;;17.50;74.00;;;;;;5074176;28;19912;-58
2022/08/08 04:46:47;;;;;;;;;;;17.40;74.40;;;;;;5073951;28;19973;-58
2022/08/08 04:49:12;;;;;;;;;;;17.50;74.50;;;;;;5073629;28;19955;-58
2022/08/08 04:51:38;;;;;;;;;;;17.40;74.50;;;;;;5074177;28;20404;-58
2022/08/08 04:54:03;;;;;;;;;;;17.40;75.10;;;;;;5073280;28;19931;-58
2022/08/08 04:56:29;;;;;;;;;;;17.40;75.10;;;;;;5074347;28;19915;-57
2022/08/08 04:58:54;;;;;;;;;;;17.40;74.40;;;;;;5073729;28;19955;-58
2022/08/08 05:01:20;;;;;;;;;;;17.40;74.70;;;;;;5073745;28;19959;-56
2022/08/08 05:03:45;;;;;;;;;;;17.40;74.90;;;;;;5055806;28;19921;-58
2022/08/08 05:06:11;;;;;;;;;;;17.40;74.50;;;;;;5074213;28;19909;-58
2022/08/08 05:08:36;;;;;;;;;;;17.40;75.30;;;;;;5073335;28;20423;-58
2022/08/08 05:11:02;;;;;;;;;;;17.40;75.30;;;;;;5073240;28;19915;-58
2022/08/08 05:13:28;;;;;;;;;;;17.40;74.70;;;;;;5055221;28;19920;-57
2022/08/08 05:15:53;;;;;;;;;;;17.50;75.20;;;;;;5074032;28;19923;-57
2022/08/08 05:18:19;;;;;;;;;;;17.40;75.40;;;;;;5073412;28;20442;-57
2022/08/08 05:20:44;;;;;;;;;;;17.50;74.90;;;;;;5073584;28;19916;-57
2022/08/08 05:23:10;;;;;;;;;;;17.50;74.90;;;;;;5072744;28;20437;-58
2022/08/08 05:25:35;;;;;;;;;;;17.50;74.80;;;;;;5055309;28;19912;-58
2022/08/08 05:28:01;;;;;;;;;;;17.50;75.40;;;;;;5055755;28;20369;-56
2022/08/08 05:30:26;;;;;;;;;;;17.60;75.20;;;;;;5073443;28;19917;-57
2022/08/08 05:32:52;;;;;;;;;;;17.60;74.90;;;;;;5073019;28;20004;-57
2022/08/08 05:35:20;;;;;;;;;;;17.50;75.40;;;;;;5072797;28;20301;-57
2022/08/08 05:37:47;;;;;;;;;;;17.50;75.40;;;;;;5072824;28;19908;-57
2022/08/08 05:40:13;;;;;;;;;;;17.50;75.10;;;;;;5073157;28;19960;-58
2022/08/08 05:42:40;;;;;;;;;;;17.60;75.30;;;;;;5073304;28;19997;-58
2022/08/08 05:45:06;;;;;;;;;;;17.60;75.30;;;;;;5072649;28;20434;-57
2022/08/08 05:47:33;;;;;;;;;;;17.70;74.80;;;;;;5054680;28;20430;-57
2022/08/08 05:50:00;;;;;;;;;;;17.70;75.10;;;;;;5072819;28;19923;-57
2022/08/08 05:52:27;;;;;;;;;;;17.70;75.10;;;;;;5072442;28;19908;-58
2022/08/08 05:54:52;;;;;;;;;;;17.70;75.00;;;;;;5072887;28;19908;-58
2022/08/08 05:57:21;;;;;;;;;;;17.70;75.20;;;;;;5072733;28;19962;-57
2022/08/08 05:59:48;;;;;;;;;;;17.80;75.40;;;;;;5055767;28;19912;-58
2022/08/08 06:05:07;;;;;;;;;;;17.80;75.10;;;;;;5072518;28;20426;-57
2022/08/08 06:07:34;;;;;;;;;;;17.80;75.30;;;;;;5072594;28;19909;-57
2022/08/08 06:10:01;;;;;;;;;;;17.80;75.40;;;;;;5071953;28;20008;-58
2022/08/08 06:12:27;;;;;;;;;;;17.80;75.30;;;;;;5072325;28;19919;-58
2022/08/08 06:14:53;;;;;;;;;;;17.80;75.60;;;;;;5072965;28;19916;-58
2022/08/08 06:17:19;;;;;;;;;;;17.90;75.60;;;;;;5072254;28;19909;-58
2022/08/08 06:19:45;;;;;;;;;;;17.90;75.40;;;;;;5072081;28;19920;-57
2022/08/08 06:22:10;;;;;;;;;;;17.90;75.80;;;;;;5071699;28;19916;-58
2022/08/08 06:24:36;;;;;;;;;;;17.90;75.40;;;;;;5072261;28;20000;-58
2022/08/08 06:27:05;;;;;;;;;;;18.00;75.10;;;;;;5071921;28;20015;-57
2022/08/08 06:29:39;;;;;;;;;;;18.00;75.10;;;;;;5072671;28;20021;-58
2022/08/08 06:32:08;;;;;;;;;;;18.10;75.20;;;;;;5072040;28;20266;-58
2022/08/08 06:34:36;;;;;;;;;;;18.10;75.10;;;;;;5071858;28;19908;-57
2022/08/08 06:37:02;;;;;;;;;;;18.10;74.90;;;;;;5071815;28;19916;-58
2022/08/08 06:39:28;;;;;;;;;;;18.20;74.70;;;;;;5071911;28;19920;-57
2022/08/08 06:41:54;;;;;;;;;;;18.30;75.00;;;;;;5072102;28;19916;-58
2022/08/08 06:44:20;;;;;;;;;;;18.20;74.70;;;;;;5071938;28;20516;-56
2022/08/08 06:46:45;;;;;;;;;;;18.20;74.70;;;;;;5071096;28;19913;-57
2022/08/08 06:49:11;;;;;;;;;;;18.30;74.80;;;;;;5071137;28;19965;-58
2022/08/08 06:51:37;;;;;;;;;;;18.30;74.90;;;;;;5071835;28;20010;-57
2022/08/08 06:54:02;;;;;;;;;;;18.30;74.60;;;;;;5071545;28;19912;-57
2022/08/08 06:56:31;;;;;;;;;;;18.30;74.90;;;;;;5071814;28;20388;-57
2022/08/08 06:58:56;;;;;;;;;;;18.30;74.80;;;;;;5072196;28;19909;-58
2022/08/08 07:01:23;;;;;;;;;;;18.40;74.60;;;;;;5071509;28;19959;-57
2022/08/08 07:03:58;;;;;;;;;;;18.40;74.70;;;;;;5071202;28;20436;-57
2022/08/08 07:06:24;;;;;;;;;;;18.40;74.70;;;;;;5070535;28;19917;-56
2022/08/08 07:08:56;;;;;;;;;;;18.40;75.20;;;;;;5071261;28;19917;-58
2022/08/08 07:11:26;;;;;;;;;;;18.50;74.60;;;;;;5069324;28;19920;-57
2022/08/08 07:13:55;;;;;;;;;;;18.50;74.60;;;;;;5070297;28;19940;-57
2022/08/08 07:16:23;;;;;;;;;;;18.60;74.50;;;;;;5069247;28;20007;-58
2022/08/08 07:18:51;;;;;;;;;;;18.70;74.50;;;;;;5065736;28;20402;-58
2022/08/08 07:21:19;;;;;;;;;;;18.70;74.30;;;;;;5071127;28;19912;-58
2022/08/08 07:23:58;;;;;;;;;;;18.80;74.40;;;;;;5053109;28;20663;-56
2022/08/08 07:26:25;;;;;;;;;;;18.90;74.40;;;;;;5069933;28;20365;-57
2022/08/08 07:28:51;;;;;;;;;;;18.90;74.20;;;;;;5062168;28;19928;-57
2022/08/08 07:31:18;;;;;;;;;;;18.90;74.10;;;;;;5068909;28;20412;-58
2022/08/08 07:33:43;;;;;;;;;;;19.00;73.70;;;;;;5067916;28;19940;-56
2022/08/08 07:36:09;;;;;;;;;;;19.00;73.90;;;;;;5068265;28;20273;-57
2022/08/08 07:38:35;;;;;;;;;;;19.00;73.50;;;;;;5069479;28;20490;-56
2022/08/08 07:41:01;;;;;;;;;;;19.10;73.50;;;;;;5062998;28;20694;-58
2022/08/08 07:43:29;;;;;;;;;;;19.20;73.30;;;;;;5068281;28;19912;-57
2022/08/08 07:45:55;;;;;;;;;;;19.20;73.30;;;;;;5068277;28;19951;-58
2022/08/08 07:48:20;;;;;;;;;;;19.30;73.20;;;;;;5069008;28;19974;-58
2022/08/08 07:50:47;;;;;;;;;;;19.40;72.90;;;;;;5069490;28;19920;-57
2022/08/08 07:53:12;;;;;;;;;;;19.50;72.90;;;;;;5069265;28;19969;-57
2022/08/08 07:55:38;;;;;;;;;;;19.50;72.60;;;;;;5069537;28;20543;-56
2022/08/08 07:58:10;;;;;;;;;;;19.50;72.10;;;;;;5071967;28;19923;-57
2022/08/08 08:00:41;;;;;;;;;;;19.50;72.20;;;;;;5073477;28;19923;-52
2022/08/08 08:03:09;;;;;;;;;;;19.60;72.10;;;;;;5073229;28;19930;-57
2022/08/08 08:05:44;;;;;;;;;;;19.70;72.00;;;;;;5073379;28;19916;-58
2022/08/08 08:08:17;;;;;;;;;;;19.80;71.90;;;;;;5071786;28;19916;-58
2022/08/08 08:10:43;;;;;;;;;;;19.90;71.70;;;;;;5070865;28;19924;-57
2022/08/08 08:13:19;;;;;;;;;;;19.90;71.70;;;;;;5073734;28;19916;-57
2022/08/08 08:16:04;;;;;;;;;;;20.00;71.40;;;;;;5073043;28;19913;-57
2022/08/08 08:18:33;;;;;;;;;;;20.10;70.80;;;;;;5071718;28;20365;-58
2022/08/08 08:21:01;;;;;;;;;;;20.10;71.30;;;;;;5073371;28;19922;-57
2022/08/08 08:23:27;;;;;;;;;;;20.20;71.00;;;;;;5073532;28;20364;-57
2022/08/08 08:25:52;;;;;;;;;;;20.20;70.60;;;;;;5073504;28;19944;-57
2022/08/08 08:28:20;;;;;;;;;;;20.30;70.80;;;;;;5072711;28;19931;-58
2022/08/08 08:30:45;;;;;;;;;;;20.40;70.30;;;;;;5071819;28;19916;-58
2022/08/08 08:33:11;;;;;;;;;;;20.40;69.90;;;;;;5073370;28;19912;-57
2022/08/08 08:35:36;;;;;;;;;;;20.50;70.00;;;;;;5073459;28;20301;-58
2022/08/08 08:38:02;;;;;;;;;;;20.50;69.50;;;;;;5073033;28;20447;-55
2022/08/08 08:40:29;;;;;;;;;;;20.60;69.30;;;;;;5072969;28;20361;-57
2022/08/08 08:42:55;;;;;;;;;;;20.60;69.20;;;;;;5071399;28;19981;-58
2022/08/08 08:45:20;;;;;;;;;;;20.60;68.90;;;;;;5070209;28;20448;-58
2022/08/08 08:47:47;;;;;;;;;;;20.70;69.20;;;;;;5071139;28;19913;-58
2022/08/08 08:50:13;;;;;;;;;;;20.80;69.10;;;;;;5072153;28;19925;-58
2022/08/08 08:52:41;;;;;;;;;;;20.90;68.80;;;;;;5072684;28;20400;-57
2022/08/08 08:55:10;;;;;;;;;;;21.00;68.80;;;;;;5073037;28;20455;-56
2022/08/08 08:57:35;;;;;;;;;;;21.00;68.40;;;;;;5071942;28;19912;-54
2022/08/08 09:00:01;;;;;;;;;;;21.10;68.80;;;;;;5072452;28;20266;-52
2022/08/08 09:02:28;;;;;;;;;;;21.20;68.50;;;;;;5072275;28;20431;-57
2022/08/08 09:05:00;;;;;;;;;;;21.20;67.70;;;;;;5071659;28;19992;-58
2022/08/08 09:07:27;;;;;;;;;;;21.20;68.00;;;;;;5054109;28;19913;-57
2022/08/08 09:09:53;;;;;;;;;;;21.30;67.10;;;;;;5072300;28;19927;-58
2022/08/08 09:12:20;;;;;;;;;;;21.30;66.90;;;;;;5072715;28;19917;-58
2022/08/08 09:14:47;;;;;;;;;;;21.40;66.70;;;;;;5071534;28;19999;-56
2022/08/08 09:17:13;;;;;;;;;;;21.40;67.20;;;;;;5072250;28;19912;-59
2022/08/08 09:19:39;;;;;;;;;;;21.50;65.60;;;;;;5072127;28;20416;-56
2022/08/08 09:22:05;;;;;;;;;;;21.50;65.40;;;;;;5072163;28;19917;-58
2022/08/08 09:24:32;;;;;;;;;;;21.60;65.00;;;;;;5072472;28;19970;-58
2022/08/08 09:27:01;;;;;;;;;;;21.60;64.70;;;;;;5072388;28;19916;-59
2022/08/08 09:29:30;;;;;;;;;;;21.60;65.00;;;;;;5071059;28;20038;-59
2022/08/08 09:31:58;;;;;;;;;;;21.80;64.90;;;;;;5070759;28;19913;-55
2022/08/08 09:34:24;;;;;;;;;;;21.80;64.20;;;;;;5072213;28;19916;-58
2022/08/08 09:36:54;;;;;;;;;;;21.90;64.50;;;;;;5072411;28;20357;-57
2022/08/08 09:39:20;;;;;;;;;;;21.90;64.00;;;;;;5072010;28;19928;-57
2022/08/08 09:41:51;;;;;;;;;;;22.00;63.60;;;;;;5071504;28;19913;-57
2022/08/08 09:44:18;;;;;;;;;;;22.10;63.10;;;;;;5071261;28;19928;-59
2022/08/08 09:46:46;;;;;;;;;;;22.10;63.10;;;;;;5072009;28;19924;-58
2022/08/08 09:49:12;;;;;;;;;;;22.20;63.20;;;;;;5070671;28;19962;-57
2022/08/08 09:51:38;;;;;;;;;;;22.20;63.70;;;;;;5071523;28;20019;-57
2022/08/08 09:54:05;;;;;;;;;;;22.30;62.80;;;;;;5071701;28;20416;-58
2022/08/08 09:56:33;;;;;;;;;;;22.40;62.30;;;;;;5071547;28;19912;-57
2022/08/08 09:59:02;;;;;;;;;;;22.40;62.40;;;;;;5069536;28;19944;-59
2022/08/08 10:01:28;;;;;;;;;;;22.40;62.40;;;;;;5071204;28;19973;-56
2022/08/08 10:03:56;;;;;;;;;;;22.40;62.10;;;;;;5069848;28;19919;-58
2022/08/08 10:06:22;;;;;;;;;;;22.40;61.90;;;;;;5072321;28;19912;-54
2022/08/08 10:08:48;;;;;;;;;;;22.50;62.40;;;;;;5071357;28;19925;-58
2022/08/08 10:11:17;;;;;;;;;;;22.60;61.70;;;;;;5071493;28;19995;-59
2022/08/08 10:13:58;;;;;;;;;;;22.50;61.50;;;;;;5070941;28;20277;-58
2022/08/08 10:16:34;;;;;;;;;;;22.60;61.30;;;;;;5070702;28;19912;-57
2022/08/08 10:19:07;;;;;;;;;;;22.70;61.10;;;;;;5071703;28;20022;-58
2022/08/08 10:21:34;;;;;;;;;;;22.70;60.50;;;;;;5070088;28;20039;-58
2022/08/08 10:24:06;;;;;;;;;;;22.80;60.80;;;;;;5053355;28;19916;-58
2022/08/08 10:26:40;;;;;;;;;;;22.90;61.40;;;;;;5070614;28;19974;-58
2022/08/08 10:29:10;;;;;;;;;;;22.90;60.30;;;;;;5043332;28;19969;-58
2022/08/08 10:34:21;;;;;;;;;;;23.00;60.30;;;;;;5071291;28;19919;-57
2022/08/08 10:36:48;;;;;;;;;;;23.00;60.30;;;;;;5069946;28;19918;-58
2022/08/08 10:39:18;;;;;;;;;;;23.00;59.30;;;;;;5086509;28;19960;-58
2022/08/08 10:41:44;;;;;;;;;;;23.10;59.50;;;;;;5070885;28;19951;-58
2022/08/08 10:44:11;;;;;;;;;;;23.20;59.50;;;;;;5070864;28;19919;-54
2022/08/08 10:46:37;;;;;;;;;;;23.20;60.50;;;;;;5071642;28;20293;-58
2022/08/08 10:49:02;;;;;;;;;;;23.20;59.90;;;;;;5071121;28;19925;-58
2022/08/08 10:51:29;;;;;;;;;;;23.20;59.10;;;;;;5072030;28;19915;-59
2022/08/08 10:53:55;;;;;;;;;;;23.20;58.90;;;;;;5072085;28;19919;-58
2022/08/08 10:56:20;;;;;;;;;;;23.30;58.90;;;;;;5071106;28;19912;-58
2022/08/08 10:58:46;;;;;;;;;;;23.40;59.20;;;;;;5071402;28;19908;-54
2022/08/08 11:01:12;;;;;;;;;;;23.40;58.50;;;;;;5071436;28;19920;-58
2022/08/08 11:03:44;;;;;;;;;;;23.50;58.30;;;;;;5071086;28;20011;-59
2022/08/08 11:06:10;;;;;;;;;;;23.50;57.70;;;;;;5071687;28;19912;-59
2022/08/08 11:08:35;;;;;;;;;;;23.50;58.50;;;;;;5071270;28;19908;-58
2022/08/08 11:11:06;;;;;;;;;;;23.60;58.60;;;;;;5070681;28;19934;-56
2022/08/08 11:13:39;;;;;;;;;;;23.70;58.20;;;;;;5071219;28;20287;-58
2022/08/08 11:16:05;;;;;;;;;;;23.80;58.20;;;;;;5071410;28;20403;-58
2022/08/08 11:18:32;;;;;;;;;;;23.80;58.60;;;;;;5071392;28;19908;-59
2022/08/08 11:20:59;;;;;;;;;;;23.80;57.00;;;;;;5071524;28;20521;-58
2022/08/08 11:23:26;;;;;;;;;;;23.80;57.40;;;;;;5071555;28;19908;-55
2022/08/08 11:25:52;;;;;;;;;;;23.80;57.40;;;;;;5070290;28;19947;-58
2022/08/08 11:28:25;;;;;;;;;;;24.00;56.50;;;;;;5071634;28;19947;-59
2022/08/08 11:30:52;;;;;;;;;;;23.90;56.60;;;;;;5071475;28;19954;-58
2022/08/08 11:33:19;;;;;;;;;;;24.00;56.40;;;;;;5070740;28;19909;-59
2022/08/08 11:35:45;;;;;;;;;;;24.00;55.90;;;;;;5071220;28;19909;-58
2022/08/08 11:38:12;;;;;;;;;;;24.00;55.70;;;;;;5071155;28;20392;-58
2022/08/08 11:40:38;;;;;;;;;;;24.10;55.90;;;;;;5070708;28;19916;-58
2022/08/08 11:43:03;;;;;;;;;;;24.10;55.20;;;;;;5070749;28;19908;-58
2022/08/08 11:45:29;;;;;;;;;;;24.20;54.90;;;;;;5070803;28;19912;-57
2022/08/08 11:47:55;;;;;;;;;;;24.20;53.70;;;;;;5070793;28;20019;-56
2022/08/08 11:50:21;;;;;;;;;;;24.20;53.90;;;;;;5070934;28;19928;-58
2022/08/08 11:52:47;;;;;;;;;;;24.20;54.10;;;;;;5068660;28;19913;-56
2022/08/08 11:55:14;;;;;;;;;;;24.30;53.40;;;;;;5070465;28;19931;-56
2022/08/08 11:57:39;;;;;;;;;;;24.30;54.20;;;;;;5070806;28;19909;-58
2022/08/08 12:00:06;;;;;;;;;;;24.30;54.10;;;;;;5070465;28;19908;-57
2022/08/08 12:02:43;;;;;;;;;;;24.40;53.10;;;;;;5071070;28;19913;-58
2022/08/08 12:05:10;;;;;;;;;;;24.40;53.60;;;;;;5070841;28;19909;-57
2022/08/08 12:07:44;;;;;;;;;;;24.50;54.00;;;;;;5070243;28;20316;-56
2022/08/08 12:10:14;;;;;;;;;;;24.60;52.30;;;;;;5070417;28;20537;-56
2022/08/08 12:12:41;;;;;;;;;;;24.60;52.30;;;;;;5070776;28;19909;-57
2022/08/08 12:15:07;;;;;;;;;;;24.70;52.70;;;;;;5070696;28;19913;-58
2022/08/08 12:17:36;;;;;;;;;;;24.70;51.90;;;;;;5070854;28;19919;-58
2022/08/08 12:20:03;;;;;;;;;;;24.70;51.50;;;;;;5070297;28;20385;-57
2022/08/08 12:22:32;;;;;;;;;;;24.70;51.20;;;;;;5070457;28;19915;-57
2022/08/08 12:24:58;;;;;;;;;;;24.90;51.70;;;;;;5070047;28;19908;-57
2022/08/08 12:27:25;;;;;;;;;;;24.90;51.50;;;;;;5070463;28;20292;-57
2022/08/08 12:29:58;;;;;;;;;;;24.80;51.70;;;;;;5069816;28;19985;-57
2022/08/08 12:32:24;;;;;;;;;;;24.90;51.20;;;;;;5070233;28;19967;-57
2022/08/08 12:34:58;;;;;;;;;;;24.90;51.10;;;;;;5070225;28;19913;-56
2022/08/08 12:37:25;;;;;;;;;;;24.90;50.90;;;;;;5070252;28;19919;-56
2022/08/08 12:39:51;;;;;;;;;;;24.90;50.60;;;;;;5069826;28;20289;-57
2022/08/08 12:42:16;;;;;;;;;;;25.00;50.30;;;;;;5070087;28;20302;-58
2022/08/08 12:44:44;;;;;;;;;;;25.10;49.20;;;;;;5072062;28;19962;-57
2022/08/08 12:47:10;;;;;;;;;;;25.10;50.40;;;;;;5055769;28;20347;-57
2022/08/08 12:49:36;;;;;;;;;;;25.10;49.50;;;;;;5073911;28;19924;-57
2022/08/08 12:52:03;;;;;;;;;;;25.10;50.60;;;;;;5073158;28;20369;-57
2022/08/08 12:54:36;;;;;;;;;;;25.10;49.50;;;;;;5073486;28;19909;-57
2022/08/08 12:57:15;;;;;;;;;;;25.10;49.60;;;;;;5073777;28;19956;-58
2022/08/08 12:59:50;;;;;;;;;;;25.10;49.10;;;;;;5073843;28;19913;-58
2022/08/08 13:02:28;;;;;;;;;;;25.20;49.80;;;;;;5073535;28;19909;-58
2022/08/08 13:04:55;;;;;;;;;;;25.40;48.50;;;;;;5073522;28;19912;-57
2022/08/08 13:07:33;;;;;;;;;;;25.40;48.90;;;;;;5073256;28;19909;-57
2022/08/08 13:09:59;;;;;;;;;;;25.40;48.80;;;;;;5073782;28;19917;-57
2022/08/08 13:12:26;;;;;;;;;;;25.50;48.90;;;;;;5082319;28;19958;-58
2022/08/08 13:14:54;;;;;;;;;;;25.50;49.70;;;;;;5073785;28;19920;-58
2022/08/08 13:17:28;;;;;;;;;;;25.50;49.10;;;;;;5066991;28;19940;-58
2022/08/08 13:19:54;;;;;;;;;;;25.50;48.70;;;;;;5073135;28;19908;-58
2022/08/08 13:22:20;;;;;;;;;;;25.60;48.30;;;;;;5072839;28;19916;-56
2022/08/08 13:24:45;;;;;;;;;;;25.60;48.30;;;;;;5073511;28;19909;-57
2022/08/08 13:27:12;;;;;;;;;;;25.50;47.90;;;;;;5073407;28;19915;-58
2022/08/08 13:29:54;;;;;;;;;;;25.50;48.50;;;;;;5072761;28;19982;-58
2022/08/08 13:32:23;;;;;;;;;;;25.50;47.70;;;;;;5068137;28;19909;-57
2022/08/08 13:34:50;;;;;;;;;;;25.50;47.60;;;;;;5072731;28;20344;-57
2022/08/08 13:37:16;;;;;;;;;;;25.50;47.70;;;;;;5072521;28;20376;-58
2022/08/08 13:39:42;;;;;;;;;;;25.50;47.10;;;;;;5072551;28;19920;-57
2022/08/08 13:42:08;;;;;;;;;;;25.60;47.80;;;;;;5073351;28;19920;-58
2022/08/08 13:44:33;;;;;;;;;;;25.70;47.60;;;;;;5072761;28;19909;-57
2022/08/08 13:47:00;;;;;;;;;;;25.80;47.50;;;;;;5072729;28;19959;-57
2022/08/08 13:49:30;;;;;;;;;;;25.80;47.30;;;;;;5072379;28;20289;-57
2022/08/08 13:52:03;;;;;;;;;;;25.90;47.30;;;;;;5072421;28;19958;-56
2022/08/08 13:54:30;;;;;;;;;;;25.90;47.20;;;;;;5066751;28;19974;-57
2022/08/08 13:57:01;;;;;;;;;;;25.90;47.50;;;;;;5066593;28;20015;-56
2022/08/08 13:59:39;;;;;;;;;;;25.90;47.10;;;;;;5069588;28;19908;-57
2022/08/08 14:02:14;;;;;;;;;;;25.90;46.80;;;;;;5069263;28;19921;-53
2022/08/08 14:04:50;;;;;;;;;;;26.00;46.30;;;;;;5070095;28;19955;-56
2022/08/08 14:07:18;;;;;;;;;;;26.00;46.80;;;;;;5052559;28;19912;-56
2022/08/08 14:09:44;;;;;;;;;;;26.00;45.50;;;;;;5051711;28;20432;-55
2022/08/08 14:12:09;;;;;;;;;;;26.10;46.50;;;;;;5070302;28;19908;-53
2022/08/08 14:14:39;;;;;;;;;;;26.10;46.70;;;;;;5069756;28;19950;-57
2022/08/08 14:17:05;;;;;;;;;;;26.10;46.30;;;;;;5051823;28;20046;-56
2022/08/08 14:19:33;;;;;;;;;;;26.10;46.10;;;;;;5069244;28;20464;-54
2022/08/08 14:21:59;;;;;;;;;;;26.20;46.20;;;;;;5067827;28;19912;-56
2022/08/08 14:24:30;;;;;;;;;;;26.20;46.00;;;;;;5070197;28;20334;-54
2022/08/08 14:26:56;;;;;;;;;;;26.20;46.40;;;;;;5069920;28;20377;-55
2022/08/08 14:29:22;;;;;;;;;;;26.20;45.90;;;;;;5047236;28;19927;-56
2022/08/08 14:31:48;;;;;;;;;;;26.20;46.20;;;;;;5069545;28;20116;-55
2022/08/08 14:34:14;;;;;;;;;;;26.40;46.50;;;;;;5068402;28;19908;-54
2022/08/08 14:36:40;;;;;;;;;;;26.40;45.60;;;;;;5068683;28;19919;-57